MSC Clorinda — 3FDW7 — position and weather

sailwx.info

Track history (hours):
 
Tides and Currents Weather Stations Pressure Air Temp Water Temp Dewpoint Dewpoint Depression Visibility Wind Speed Wind Dir Waves Ship Positions

MSC Clorinda

Last reported at 2016-Feb-08 04:07 UTC. Time now 2016-Feb-14 12:37 UTC.
Position N 36°02' E 014°48'.

Length 366 m; draft 15.1 m.

Type: Ship (hazmat cat A). MMSI: 373233000.

Date/timePositionNaut miles runAvg speedWind from/ knotsBaromVisibWave heightAir tempDewpointWater temp
2016-Feb-08 04:07N 36°02' E 014°48'1120.0
2016-Feb-08 03:33N 36°05' E 014°35'2120.6
2016-Feb-08 02:33N 36°13' E 014°12'2120.9
2016-Feb-08 01:33N 36°22' E 013°48'64820.6
2016-Feb-06 18:05N 36°40' E 000°23'1220.9
2016-Feb-06 17:32N 36°38' E 000°09'2121.6
2016-Feb-06 16:33N 36°35' W 000°17'2321.3
2016-Feb-06 15:29N 36°31' W 000°45'21221.1
2016-Feb-06 05:25N 36°01' W 005°06'2023.0
2016-Feb-06 04:34N 35°57' W 005°30'12721.0
2016-Feb-05 22:31N 36°18' W 008°06'2119.7
2016-Feb-05 21:28N 36°24' W 008°30'2120.7
2016-Feb-05 20:28N 36°29' W 008°55'2120.7
2016-Feb-05 19:28N 36°35' W 009°20'1718.8
2016-Feb-05 18:33N 36°49' W 009°34'2020.1
2016-Feb-05 17:33N 37°07' W 009°41'2120.4
2016-Feb-05 16:32N 37°28' W 009°46'2120.6
2016-Feb-05 15:32N 37°48' W 009°52'2020.6
2016-Feb-05 14:33N 38°08' W 009°58'2120.8
2016-Feb-05 13:33N 38°28' W 010°03'2020.4
2016-Feb-05 12:33N 38°48' W 010°07'2020.3
2016-Feb-05 11:34N 39°08' W 010°08'2421.9
2016-Feb-05 10:28N 39°32' W 010°07'2020.4
2016-Feb-05 09:28N 39°53' W 010°06'2120.6
2016-Feb-05 08:28N 40°13' W 010°05'1919.5
2016-Feb-05 07:31N 40°32' W 010°04'1819.1
2016-Feb-05 06:33N 40°50' W 010°04'2322.3
2016-Feb-05 05:31N 41°13' W 010°04'1818.6
2016-Feb-05 04:33N 41°31' W 010°04'2322.0
2016-Feb-05 03:31N 41°54' W 010°06'61417.6
2016-Feb-03 16:33N 49°39' W 000°32'1616.3
2016-Feb-03 15:33N 49°32' W 000°10'1212.2
2016-Feb-03 14:33N 49°28' E 000°08'1 0.6
2016-Feb-03 13:33N 49°28' E 000°09'0 0.0
2016-Feb-03 12:30N 49°28' E 000°09'0 0.0
2016-Feb-03 11:33N 49°28' E 000°09'0 0.0
2016-Feb-03 10:33N 49°28' E 000°09'0 0.0
2016-Feb-03 09:34N 49°28' E 000°09'0 0.0
2016-Feb-03 08:33N 49°28' E 000°09'0 0.0
2016-Feb-03 07:33N 49°28' E 000°09'0 0.0
2016-Feb-03 06:33N 49°28' E 000°09'0 0.0
2016-Feb-03 05:34N 49°28' E 000°09'0 0.0
2016-Feb-03 04:33N 49°28' E 000°09'0 0.0
2016-Feb-03 03:33N 49°28' E 000°09'0 0.0
2016-Feb-03 02:33N 49°28' E 000°09'0 0.0
2016-Feb-03 01:33N 49°28' E 000°09'0 0.0
2016-Feb-03 00:33N 49°28' E 000°09'0 0.0
2016-Feb-02 23:33N 49°28' E 000°09'0 0.0
2016-Feb-02 22:33N 49°28' E 000°09'0 0.0
2016-Feb-02 21:33N 49°28' E 000°09'0 0.0
2016-Feb-02 20:33N 49°28' E 000°09'0 0.0
2016-Feb-02 19:33N 49°28' E 000°09'1 0.5
2016-Feb-02 18:33N 49°28' E 000°08'1212.4
2016-Feb-02 17:33N 49°32' W 000°10'1414.1
2016-Feb-02 16:34N 49°46' W 000°16'3816.4
2016-Feb-02 14:13N 50°24' W 000°08'1116.6
2016-Feb-02 13:33N 50°30' E 000°07'1717.5
2016-Feb-02 12:33N 50°35' E 000°33'1818.0
2016-Feb-02 11:34N 50°44' E 000°57'1818.4
2016-Feb-02 10:33N 50°56' E 001°19'1818.0
2016-Feb-02 09:34N 51°09' E 001°39'1717.3
2016-Feb-02 08:34N 51°24' E 001°52'1717.2
2016-Feb-02 07:34N 51°41' E 001°46'1313.4
2016-Feb-02 06:33N 51°52' E 001°34'1010.4
2016-Feb-02 05:33N 51°56' E 001°19'2 1.8
2016-Feb-02 04:33N 51°58' E 001°17'0 0.0
2016-Feb-02 03:33N 51°58' E 001°17'0 0.0
2016-Feb-02 02:33N 51°58' E 001°17'0 0.0
2016-Feb-02 01:33N 51°58' E 001°17'0 0.0
2016-Feb-02 00:33N 51°58' E 001°17'0 0.0
2016-Feb-01 23:33N 51°58' E 001°17'0 0.0
2016-Feb-01 22:33N 51°58' E 001°17'0 0.0
2016-Feb-01 21:33N 51°58' E 001°17'0 0.0
2016-Feb-01 20:33N 51°58' E 001°17'0 0.0
2016-Feb-01 19:33N 51°58' E 001°17'0 0.0
2016-Feb-01 18:33N 51°58' E 001°17'0 0.0
2016-Feb-01 17:33N 51°58' E 001°17'0 0.0
2016-Feb-01 16:33N 51°58' E 001°17'0 0.0
2016-Feb-01 15:33N 51°58' E 001°17'0 0.0
2016-Feb-01 14:33N 51°58' E 001°17'0 0.0
2016-Feb-01 13:33N 51°58' E 001°17'0 0.0
2016-Feb-01 12:33N 51°58' E 001°17'0 0.0
2016-Feb-01 11:33N 51°58' E 001°17'0 0.0
2016-Feb-01 10:30N 51°58' E 001°17'0 0.0
2016-Feb-01 09:33N 51°58' E 001°17'0 0.0
2016-Feb-01 08:33N 51°58' E 001°17'0 0.0
2016-Feb-01 07:33N 51°58' E 001°17'0 0.0
2016-Feb-01 06:33N 51°58' E 001°17'0 0.0
2016-Feb-01 05:33N 51°58' E 001°17'0 0.0
2016-Feb-01 04:33N 51°58' E 001°17'0 0.0
2016-Feb-01 03:33N 51°58' E 001°17'0 0.0
2016-Feb-01 02:33N 51°58' E 001°17'0 0.0
2016-Feb-01 01:33N 51°58' E 001°17'0 0.0
2016-Feb-01 00:33N 51°58' E 001°17'0 0.0
2016-Jan-31 23:33N 51°58' E 001°17'0 0.0
2016-Jan-31 22:33N 51°58' E 001°17'0 0.0
2016-Jan-31 21:33N 51°58' E 001°17'0 0.0
2016-Jan-31 20:33N 51°58' E 001°17'0 0.0
2016-Jan-31 19:33N 51°58' E 001°17'0 0.0
2016-Jan-31 18:33N 51°58' E 001°17'0 0.0
2016-Jan-31 17:33N 51°58' E 001°17'0 0.0
2016-Jan-31 16:33N 51°58' E 001°17'0 0.0
2016-Jan-31 15:33N 51°58' E 001°17'0 0.0
2016-Jan-31 14:33N 51°58' E 001°17'0 0.0
2016-Jan-31 13:33N 51°58' E 001°17'0 0.0
2016-Jan-31 12:33N 51°58' E 001°17'0 0.0
2016-Jan-31 11:33N 51°58' E 001°17'0 0.0
2016-Jan-31 10:33N 51°58' E 001°17'0 0.0
2016-Jan-31 09:33N 51°58' E 001°17'0 0.0
2016-Jan-31 08:33N 51°58' E 001°17'0 0.0
2016-Jan-31 07:33N 51°58' E 001°17'0 0.0
2016-Jan-31 06:33N 51°58' E 001°17'0 0.0
2016-Jan-31 05:33N 51°58' E 001°17'0 0.0
2016-Jan-31 04:33N 51°58' E 001°17'0 0.0
2016-Jan-31 03:33N 51°58' E 001°17'0 0.0
2016-Jan-31 02:33N 51°58' E 001°17'0 0.0
2016-Jan-31 01:33N 51°58' E 001°17'0 0.0
2016-Jan-31 00:33N 51°58' E 001°17'0 0.0
2016-Jan-30 23:33N 51°58' E 001°17'0 0.0
2016-Jan-30 22:33N 51°58' E 001°17'0 0.0
2016-Jan-30 21:33N 51°58' E 001°17'0 0.0
2016-Jan-30 20:33N 51°58' E 001°17'4 4.3
2016-Jan-30 19:33N 51°56' E 001°24'1010.4
2016-Jan-30 18:33N 51°52' E 001°39'4 3.9
2016-Jan-30 17:33N 51°52' E 001°46'7 6.6
2016-Jan-30 16:33N 51°46' E 001°50'1312.8
2016-Jan-30 15:34N 51°33' E 001°55'1515.0
2016-Jan-30 14:33N 51°22' E 002°11'1514.7
2016-Jan-30 13:33N 51°23' E 002°35'1312.9
2016-Jan-30 12:33N 51°25' E 002°55'1716.8
2016-Jan-30 11:33N 51°24' E 003°22'1010.3
2016-Jan-30 10:34N 51°26' E 003°38'1211.6
2016-Jan-30 09:33N 51°22' E 003°56'9 9.1
2016-Jan-30 08:33N 51°23' E 004°10'7 6.7
2016-Jan-30 07:33N 51°18' E 004°16'0 0.0
2016-Jan-30 06:31N 51°18' E 004°15'0 0.0
2016-Jan-30 05:31N 51°18' E 004°15'0 0.0
2016-Jan-30 04:31N 51°18' E 004°15'0 0.0
2016-Jan-30 03:31N 51°18' E 004°15'0 0.0
2016-Jan-30 02:28N 51°18' E 004°15'0 0.0
2016-Jan-30 01:31N 51°18' E 004°15'0 0.0
2016-Jan-30 00:31N 51°18' E 004°15'0 0.0
2016-Jan-29 23:31N 51°18' E 004°15'0 0.0
2016-Jan-29 22:28N 51°18' E 004°15'0 0.0
2016-Jan-29 21:31N 51°18' E 004°15'0 0.0
2016-Jan-29 20:31N 51°18' E 004°15'0 0.0
2016-Jan-29 19:31N 51°18' E 004°15'0 0.0
2016-Jan-29 18:31N 51°18' E 004°15'0 0.0
2016-Jan-29 17:31N 51°18' E 004°15'0 0.0
2016-Jan-29 16:31N 51°18' E 004°15'0 0.0
2016-Jan-29 15:31N 51°18' E 004°15'0 0.0
2016-Jan-29 14:28N 51°18' E 004°15'0 0.0
2016-Jan-29 13:31N 51°18' E 004°15'0 0.0
2016-Jan-29 12:31N 51°18' E 004°15'0 0.0
2016-Jan-29 11:31N 51°18' E 004°15'0 0.0
2016-Jan-29 10:31N 51°18' E 004°15'0 0.0
2016-Jan-29 09:31N 51°18' E 004°15'0 0.0
2016-Jan-29 08:31N 51°18' E 004°15'0 0.0
2016-Jan-29 07:31N 51°18' E 004°15'0 0.0
2016-Jan-29 06:31N 51°18' E 004°15'0 0.0
2016-Jan-29 05:31N 51°18' E 004°15'0 0.0
2016-Jan-29 04:31N 51°18' E 004°15'  
Track history (hours):
 
Tides and Currents Weather Stations Pressure Air Temp Water Temp Dewpoint Dewpoint Depression Visibility Wind Speed Wind Dir Waves Ship Positions

MSC Clorinda

Last reported at 2016-Feb-08 04:07 UTC. Time now 2016-Feb-14 12:37 UTC.
Position N 36°02' E 014°48'.

Length 366 m; draft 15.1 m.

Type: Ship (hazmat cat A). MMSI: 373233000.

Date/timePositionNaut miles runAvg speedWind from/ knotsBaromVisibWave heightAir tempDewpointWater temp
2016-Feb-08 04:07N 36°02' E 014°48'1120.0
2016-Feb-08 03:33N 36°05' E 014°35'2120.6
2016-Feb-08 02:33N 36°13' E 014°12'2120.9
2016-Feb-08 01:33N 36°22' E 013°48'64820.6
2016-Feb-06 18:05N 36°40' E 000°23'1220.9
2016-Feb-06 17:32N 36°38' E 000°09'2121.6
2016-Feb-06 16:33N 36°35' W 000°17'2321.3
2016-Feb-06 15:29N 36°31' W 000°45'21221.1
2016-Feb-06 05:25N 36°01' W 005°06'2023.0
2016-Feb-06 04:34N 35°57' W 005°30'12721.0
2016-Feb-05 22:31N 36°18' W 008°06'2119.7
2016-Feb-05 21:28N 36°24' W 008°30'2120.7
2016-Feb-05 20:28N 36°29' W 008°55'2120.7
2016-Feb-05 19:28N 36°35' W 009°20'1718.8
2016-Feb-05 18:33N 36°49' W 009°34'2020.1
2016-Feb-05 17:33N 37°07' W 009°41'2120.4
2016-Feb-05 16:32N 37°28' W 009°46'2120.6
2016-Feb-05 15:32N 37°48' W 009°52'2020.6
2016-Feb-05 14:33N 38°08' W 009°58'2120.8
2016-Feb-05 13:33N 38°28' W 010°03'2020.4
2016-Feb-05 12:33N 38°48' W 010°07'2020.3
2016-Feb-05 11:34N 39°08' W 010°08'2421.9
2016-Feb-05 10:28N 39°32' W 010°07'2020.4
2016-Feb-05 09:28N 39°53' W 010°06'2120.6
2016-Feb-05 08:28N 40°13' W 010°05'1919.5
2016-Feb-05 07:31N 40°32' W 010°04'1819.1
2016-Feb-05 06:33N 40°50' W 010°04'2322.3
2016-Feb-05 05:31N 41°13' W 010°04'1818.6
2016-Feb-05 04:33N 41°31' W 010°04'2322.0
2016-Feb-05 03:31N 41°54' W 010°06'61417.6
2016-Feb-03 16:33N 49°39' W 000°32'1616.3
2016-Feb-03 15:33N 49°32' W 000°10'1212.2
2016-Feb-03 14:33N 49°28' E 000°08'1 0.6
2016-Feb-03 13:33N 49°28' E 000°09'0 0.0
2016-Feb-03 12:30N 49°28' E 000°09'0 0.0
2016-Feb-03 11:33N 49°28' E 000°09'0 0.0
2016-Feb-03 10:33N 49°28' E 000°09'0 0.0
2016-Feb-03 09:34N 49°28' E 000°09'0 0.0
2016-Feb-03 08:33N 49°28' E 000°09'0 0.0
2016-Feb-03 07:33N 49°28' E 000°09'0 0.0
2016-Feb-03 06:33N 49°28' E 000°09'0 0.0
2016-Feb-03 05:34N 49°28' E 000°09'0 0.0
2016-Feb-03 04:33N 49°28' E 000°09'0 0.0
2016-Feb-03 03:33N 49°28' E 000°09'0 0.0
2016-Feb-03 02:33N 49°28' E 000°09'0 0.0
2016-Feb-03 01:33N 49°28' E 000°09'0 0.0
2016-Feb-03 00:33N 49°28' E 000°09'0 0.0
2016-Feb-02 23:33N 49°28' E 000°09'0 0.0
2016-Feb-02 22:33N 49°28' E 000°09'0 0.0
2016-Feb-02 21:33N 49°28' E 000°09'0 0.0
2016-Feb-02 20:33N 49°28' E 000°09'0 0.0
2016-Feb-02 19:33N 49°28' E 000°09'1 0.5
2016-Feb-02 18:33N 49°28' E 000°08'1212.4
2016-Feb-02 17:33N 49°32' W 000°10'1414.1
2016-Feb-02 16:34N 49°46' W 000°16'3816.4
2016-Feb-02 14:13N 50°24' W 000°08'1116.6
2016-Feb-02 13:33N 50°30' E 000°07'1717.5
2016-Feb-02 12:33N 50°35' E 000°33'1818.0
2016-Feb-02 11:34N 50°44' E 000°57'1818.4
2016-Feb-02 10:33N 50°56' E 001°19'1818.0
2016-Feb-02 09:34N 51°09' E 001°39'1717.3
2016-Feb-02 08:34N 51°24' E 001°52'1717.2
2016-Feb-02 07:34N 51°41' E 001°46'1313.4
2016-Feb-02 06:33N 51°52' E 001°34'1010.4
2016-Feb-02 05:33N 51°56' E 001°19'2 1.8
2016-Feb-02 04:33N 51°58' E 001°17'0 0.0
2016-Feb-02 03:33N 51°58' E 001°17'0 0.0
2016-Feb-02 02:33N 51°58' E 001°17'0 0.0
2016-Feb-02 01:33N 51°58' E 001°17'0 0.0
2016-Feb-02 00:33N 51°58' E 001°17'0 0.0
2016-Feb-01 23:33N 51°58' E 001°17'0 0.0
2016-Feb-01 22:33N 51°58' E 001°17'0 0.0
2016-Feb-01 21:33N 51°58' E 001°17'0 0.0
2016-Feb-01 20:33N 51°58' E 001°17'0 0.0
2016-Feb-01 19:33N 51°58' E 001°17'0 0.0
2016-Feb-01 18:33N 51°58' E 001°17'0 0.0
2016-Feb-01 17:33N 51°58' E 001°17'0 0.0
2016-Feb-01 16:33N 51°58' E 001°17'0 0.0
2016-Feb-01 15:33N 51°58' E 001°17'0 0.0
2016-Feb-01 14:33N 51°58' E 001°17'0 0.0
2016-Feb-01 13:33N 51°58' E 001°17'0 0.0
2016-Feb-01 12:33N 51°58' E 001°17'0 0.0
2016-Feb-01 11:33N 51°58' E 001°17'0 0.0
2016-Feb-01 10:30N 51°58' E 001°17'0 0.0
2016-Feb-01 09:33N 51°58' E 001°17'0 0.0
2016-Feb-01 08:33N 51°58' E 001°17'0 0.0
2016-Feb-01 07:33N 51°58' E 001°17'0 0.0
2016-Feb-01 06:33N 51°58' E 001°17'0 0.0
2016-Feb-01 05:33N 51°58' E 001°17'0 0.0
2016-Feb-01 04:33N 51°58' E 001°17'0 0.0
2016-Feb-01 03:33N 51°58' E 001°17'0 0.0
2016-Feb-01 02:33N 51°58' E 001°17'0 0.0
2016-Feb-01 01:33N 51°58' E 001°17'0 0.0
2016-Feb-01 00:33N 51°58' E 001°17'0 0.0
2016-Jan-31 23:33N 51°58' E 001°17'0 0.0
2016-Jan-31 22:33N 51°58' E 001°17'0 0.0
2016-Jan-31 21:33N 51°58' E 001°17'0 0.0
2016-Jan-31 20:33N 51°58' E 001°17'0 0.0
2016-Jan-31 19:33N 51°58' E 001°17'0 0.0
2016-Jan-31 18:33N 51°58' E 001°17'0 0.0
2016-Jan-31 17:33N 51°58' E 001°17'0 0.0
2016-Jan-31 16:33N 51°58' E 001°17'0 0.0
2016-Jan-31 15:33N 51°58' E 001°17'0 0.0
2016-Jan-31 14:33N 51°58' E 001°17'0 0.0
2016-Jan-31 13:33N 51°58' E 001°17'0 0.0
2016-Jan-31 12:33N 51°58' E 001°17'0 0.0
2016-Jan-31 11:33N 51°58' E 001°17'0 0.0
2016-Jan-31 10:33N 51°58' E 001°17'0 0.0
2016-Jan-31 09:33N 51°58' E 001°17'0 0.0
2016-Jan-31 08:33N 51°58' E 001°17'0 0.0
2016-Jan-31 07:33N 51°58' E 001°17'0 0.0
2016-Jan-31 06:33N 51°58' E 001°17'0 0.0
2016-Jan-31 05:33N 51°58' E 001°17'0 0.0
2016-Jan-31 04:33N 51°58' E 001°17'0 0.0
2016-Jan-31 03:33N 51°58' E 001°17'0 0.0
2016-Jan-31 02:33N 51°58' E 001°17'0 0.0
2016-Jan-31 01:33N 51°58' E 001°17'0 0.0
2016-Jan-31 00:33N 51°58' E 001°17'0 0.0
2016-Jan-30 23:33N 51°58' E 001°17'0 0.0
2016-Jan-30 22:33N 51°58' E 001°17'0 0.0
2016-Jan-30 21:33N 51°58' E 001°17'0 0.0
2016-Jan-30 20:33N 51°58' E 001°17'4 4.3
2016-Jan-30 19:33N 51°56' E 001°24'1010.4
2016-Jan-30 18:33N 51°52' E 001°39'4 3.9
2016-Jan-30 17:33N 51°52' E 001°46'7 6.6
2016-Jan-30 16:33N 51°46' E 001°50'1312.8
2016-Jan-30 15:34N 51°33' E 001°55'1515.0
2016-Jan-30 14:33N 51°22' E 002°11'1514.7
2016-Jan-30 13:33N 51°23' E 002°35'1312.9
2016-Jan-30 12:33N 51°25' E 002°55'1716.8
2016-Jan-30 11:33N 51°24' E 003°22'1010.3
2016-Jan-30 10:34N 51°26' E 003°38'1211.6
2016-Jan-30 09:33N 51°22' E 003°56'9 9.1
2016-Jan-30 08:33N 51°23' E 004°10'7 6.7
2016-Jan-30 07:33N 51°18' E 004°16'0 0.0
2016-Jan-30 06:31N 51°18' E 004°15'0 0.0
2016-Jan-30 05:31N 51°18' E 004°15'0 0.0
2016-Jan-30 04:31N 51°18' E 004°15'0 0.0
2016-Jan-30 03:31N 51°18' E 004°15'0 0.0
2016-Jan-30 02:28N 51°18' E 004°15'0 0.0
2016-Jan-30 01:31N 51°18' E 004°15'0 0.0
2016-Jan-30 00:31N 51°18' E 004°15'0 0.0
2016-Jan-29 23:31N 51°18' E 004°15'0 0.0
2016-Jan-29 22:28N 51°18' E 004°15'0 0.0
2016-Jan-29 21:31N 51°18' E 004°15'0 0.0
2016-Jan-29 20:31N 51°18' E 004°15'0 0.0
2016-Jan-29 19:31N 51°18' E 004°15'0 0.0
2016-Jan-29 18:31N 51°18' E 004°15'0 0.0
2016-Jan-29 17:31N 51°18' E 004°15'0 0.0
2016-Jan-29 16:31N 51°18' E 004°15'0 0.0
2016-Jan-29 15:31N 51°18' E 004°15'0 0.0
2016-Jan-29 14:28N 51°18' E 004°15'0 0.0
2016-Jan-29 13:31N 51°18' E 004°15'0 0.0
2016-Jan-29 12:31N 51°18' E 004°15'0 0.0
2016-Jan-29 11:31N 51°18' E 004°15'0 0.0
2016-Jan-29 10:31N 51°18' E 004°15'0 0.0
2016-Jan-29 09:31N 51°18' E 004°15'0 0.0
2016-Jan-29 08:31N 51°18' E 004°15'0 0.0
2016-Jan-29 07:31N 51°18' E 004°15'0 0.0
2016-Jan-29 06:31N 51°18' E 004°15'0 0.0
2016-Jan-29 05:31N 51°18' E 004°15'0 0.0
2016-Jan-29 04:31N 51°18' E 004°15'  

Dump ship's entire track history